Alicante, Spain

10:22 PM CEST on September 23, 2014 (GMT +0200)
Alicante | Change Station
CLOSE
Current Station
Airport
Location: Alicante,
Elevation: 102 ft
Nearby Weather Stations

Elev 102 ft 38.28 °N, 0.56 °W | Updated 22 minutes ago

Partly Cloudy
Partly Cloudy
75 °F
Feels Like 75 °F
N
0
Wind Variable Wind from North

Today
High -- | Low -- °F
--% Chance of Precip.
Yesterday
High -- | Low -- °F
Precip. -- in
7:50 AM 7:57 PM
Waning Crescent, 0% visible
Pressure 29.92 in
Visibility 6.2 miles
Clouds Few 3200 ft
Dew Point 63 °F
Humidity 65%
Rainfall 0.00 in
Snow Depth Not available.
UV 0 out of 12
Pollen Not available.
Air Quality Not available.
Flu Activity Not available.
METAR LEAL 232000Z 00000KT 9999 FEW032 24/17 Q1013 NOSIG

More Conditions Fewer Conditions

Pressure 29.92 in
Visibility 6.2 miles
Clouds Few 3200 ft
Dew Point 63 °F
Humidity 65%
Rainfall 0.00 in
Snow Depth Not available.
UV 0 out of 12
Pollen Not available.
Air Quality Not available.
Flu Activity Not available.
METAR LEAL 232000Z 00000KT 9999 FEW032 24/17 Q1013 NOSIG

More Conditions Fewer Conditions

10-Day Weather Forecast

Almanac

Astronomy

Sep. 23, 2014 Rise Set
Actual Time 7:50 AM CEST 7:57 PM CEST
Civil Twilight 7:24 AM CEST 8:24 PM CEST
Nautical Twilight 6:53 AM CEST 8:55 PM CEST
Astronomical Twilight 6:22 AM CEST 9:26 PM CEST
Moon 7:01 AM CEST 7:29 PM CEST
Length Of Visible Light 13h 00m
Length of Day
12h 07m
Tomorrow will be 2m 27s shorter.
Waning Crescent, 0% of the Moon is Illuminated
Today
Waning Crescent
Sep 24
New
Oct 1
First Quarter
Oct 8
Full
Oct 15
Last Quarter

Today's Extremes

Country Highs Country Lows

Community

WunderPhotos

Upload Photos

1,755,787 photos uploaded!

WunderBlogs® & News

By Dr. Jeff Masters
Director of Meteorology, Weather Underground
By Kari Strenfel
Meteorologist, Weather Underground
By Christopher C. Burt
Weather Historian, Weather Underground
September 23, 2014
September 23, 2014
September 23, 2014

Nearby

Snow Depth

Not available.

Earthquake Activity

City Distance Mag. Time & Date
No recent earthquake activity has been reported nearby.
Minimum magnitude displayed is 2.5.

Coastal Water Temperatures

Place Temperature
No Stations Reporting

Nearby Weather Stations